Terminal Aerodrome Forecast
Issued by NWS Brownsville, TX

Home | Current Version | Previous Version | Text Only | Print | Product List | Glossary On
Versions: 1 2 3 4 5 6 7 8 9 10 11 12 13 14 15 16
467
FTUS44 KBRO 252332
TAFMFE
TAF
KMFE 252332Z 2600/2624 08012KT P6SM SCT050
     FM260300 08007KT P6SM SKC
     FM260900 12008KT P6SM OVC015
     FM261700 15014G20KT P6SM OVC050=

USA.gov is the U.S. government's official web portal to all federal, state and local government web resources and services.